createdAt,value
2022-09-05T00:32:08.000Z,1.0
2022-09-05T00:32:19.000Z,1.0
2022-09-05T00:33:11.000Z,1.0
2022-09-05T01:06:13.000Z,1.0
2022-09-05T01:06:23.000Z,1.0
2022-09-05T01:06:33.000Z,1.0
2022-09-05T01:06:44.000Z,1.0
2022-09-05T01:06:54.000Z,1.0
2022-09-05T01:07:05.000Z,1.0
2022-09-05T01:07:15.000Z,1.0
2022-09-05T01:07:25.000Z,1.0
2022-09-05T01:07:36.000Z,1.0
2022-09-05T01:07:46.000Z,1.0
2022-09-05T01:07:57.000Z,1.0
2022-09-05T01:54:37.000Z,1.0
2022-09-05T02:24:40.000Z,2.0
2022-09-05T02:54:42.000Z,2.0
2022-09-05T02:54:52.000Z,2.0
2022-09-05T02:55:03.000Z,2.0
2022-09-05T02:55:13.000Z,2.0
2022-09-05T02:55:23.000Z,2.0
2022-09-05T02:55:34.000Z,2.0
2022-09-05T02:55:44.000Z,2.0
2022-09-05T02:55:55.000Z,1.0
2022-09-05T02:56:05.000Z,2.0
2022-09-05T02:56:15.000Z,2.0
2022-09-05T02:56:26.000Z,2.0
2022-09-05T02:56:36.000Z,2.0
2022-09-05T02:56:47.000Z,1.0
2022-09-05T02:56:57.000Z,1.0
2022-09-05T02:57:07.000Z,2.0
2022-09-05T02:57:18.000Z,1.0
2022-09-05T02:57:28.000Z,2.0
2022-09-05T02:57:39.000Z,1.0
2022-09-05T02:57:49.000Z,1.0
2022-09-05T02:57:59.000Z,1.0
2022-09-05T02:58:10.000Z,1.0
2022-09-05T03:30:40.000Z,2.0
2022-09-05T04:06:49.000Z,2.0
2022-09-05T04:07:41.000Z,2.0
2022-09-05T04:07:53.000Z,2.0
2022-09-05T04:08:04.000Z,2.0
2022-09-05T04:08:14.000Z,2.0
2022-09-05T04:46:07.000Z,7.0
2022-09-05T05:17:53.000Z,21.0
2022-09-05T05:18:04.000Z,21.0
2022-09-05T05:50:45.166Z,38
2022-09-05T06:21:30.000Z,51.0
2022-09-05T06:22:01.000Z,52.0
2022-09-05T06:22:22.000Z,52.0
2022-09-05T06:22:32.000Z,52.0
2022-09-05T06:56:38.000Z,81.0
2022-09-05T07:26:41.000Z,349.0
2022-09-05T07:27:44.000Z,362.0
2022-09-05T07:27:54.000Z,366.0
2022-09-05T07:28:04.000Z,370.0
2022-09-05T08:06:14.000Z,468.0
2022-09-05T08:06:56.000Z,470.0
2022-09-05T08:07:06.000Z,471.0
2022-09-05T08:07:17.000Z,471.0
2022-09-05T08:07:27.000Z,471.0
2022-09-05T08:07:38.000Z,471.0
2022-09-05T08:07:48.000Z,472.0
2022-09-05T08:07:58.000Z,472.0
2022-09-05T08:08:09.000Z,472.0
2022-09-05T08:08:19.000Z,473.0
2022-09-05T08:08:30.000Z,473.0
2022-09-05T08:08:40.000Z,474.0
2022-09-05T08:08:50.000Z,474.0
2022-09-05T08:09:01.000Z,475.0
2022-09-05T08:09:11.000Z,475.0
2022-09-05T08:52:15.000Z,559.0
2022-09-05T08:52:26.000Z,559.0
2022-09-05T08:52:36.000Z,559.0
2022-09-05T08:52:57.000Z,561.0
2022-09-05T08:53:18.000Z,561.0
2022-09-05T08:53:59.000Z,563.0
2022-09-05T08:54:10.000Z,564.0
2022-09-05T09:32:57.000Z,637.0
2022-09-05T10:10:30.000Z,685.0
2022-09-05T10:10:40.000Z,684.0
2022-09-05T10:10:51.000Z,684.0
2022-09-05T10:11:53.000Z,689.0
2022-09-05T10:46:36.000Z,716.0
2022-09-05T10:47:18.000Z,716.0
2022-09-05T10:48:20.000Z,718.0
2022-09-05T10:48:31.000Z,719.0
2022-09-05T11:24:38.000Z,739.0
2022-09-05T11:26:42.000Z,222.0
2022-09-05T11:28:26.000Z,758.0
2022-09-05T11:29:18.000Z,756.0
2022-09-05T12:44:24.000Z,707.0
2022-09-05T12:44:45.000Z,704.0
2022-09-05T12:44:56.000Z,703.0
2022-09-05T12:45:06.000Z,702.0
2022-09-05T13:23:22.000Z,643.0
2022-09-05T13:23:32.000Z,642.0
2022-09-05T13:23:42.000Z,642.0
2022-09-05T13:23:53.000Z,642.0
2022-09-05T13:24:03.000Z,642.0
2022-09-05T13:24:14.000Z,645.0
2022-09-05T13:24:24.000Z,647.0
2022-09-05T13:24:35.000Z,650.0
2022-09-05T13:24:45.000Z,652.0
2022-09-05T13:24:56.000Z,654.0
2022-09-05T13:25:06.000Z,655.0
2022-09-05T13:25:17.000Z,656.0
2022-09-05T13:25:28.000Z,656.0
2022-09-05T13:25:38.000Z,653.0
2022-09-05T13:25:49.000Z,656.0
2022-09-05T13:25:59.000Z,654.0
2022-09-05T13:26:10.000Z,649.0
2022-09-05T13:26:20.000Z,582.0
2022-09-05T13:26:30.000Z,507.0
2022-09-05T13:26:41.000Z,407.0
2022-09-05T13:26:51.000Z,277.0
2022-09-05T13:27:01.000Z,226.0
2022-09-05T13:27:12.000Z,225.0
2022-09-05T13:27:22.000Z,250.0
2022-09-05T13:27:33.000Z,270.0
2022-09-05T13:27:43.000Z,262.0
2022-09-05T13:27:53.000Z,248.0
2022-09-05T13:28:04.000Z,257.0
2022-09-05T13:28:14.000Z,284.0
2022-09-05T13:28:25.000Z,279.0
2022-09-05T13:28:35.000Z,280.0
2022-09-05T13:28:45.000Z,277.0
2022-09-05T13:28:56.000Z,291.0
2022-09-05T13:29:06.000Z,316.0
2022-09-05T13:29:17.000Z,367.0
2022-09-05T13:29:27.000Z,411.0
2022-09-05T13:29:37.000Z,436.0
2022-09-05T13:29:48.000Z,497.0
2022-09-05T13:29:59.000Z,440.0
2022-09-05T13:30:09.000Z,480.0
2022-09-05T13:30:19.000Z,541.0
2022-09-05T13:30:30.000Z,287.0
2022-09-05T13:30:41.000Z,388.0
2022-09-05T13:30:51.000Z,421.0
2022-09-05T13:31:02.000Z,523.0
2022-09-05T13:31:12.000Z,556.0
2022-09-05T13:31:23.000Z,478.0
2022-09-05T13:31:33.000Z,469.0
2022-09-05T13:31:43.000Z,543.0
2022-09-05T13:31:54.000Z,551.0
2022-09-05T13:32:04.000Z,404.0
2022-09-05T13:32:14.000Z,303.0
2022-09-05T13:32:25.000Z,332.0
2022-09-05T14:18:37.000Z,142.0
2022-09-05T14:18:47.000Z,141.0
2022-09-05T14:18:57.000Z,140.0
2022-09-05T14:19:29.000Z,138.0
2022-09-05T14:22:16.000Z,124.0
2022-09-05T14:22:26.000Z,123.0
2022-09-05T14:23:18.000Z,120.0
2022-09-05T14:55:12.000Z,570.0
2022-09-05T15:25:25.000Z,453.0
2022-09-05T15:55:27.876Z,67
2022-09-05T16:26:39.000Z,48.0
2022-09-05T16:26:59.000Z,48.0
2022-09-05T16:27:20.000Z,49.0
2022-09-05T16:28:02.000Z,48.0
2022-09-05T16:28:12.000Z,49.0
2022-09-05T16:28:23.000Z,48.0
2022-09-05T16:28:33.000Z,48.0
2022-09-05T16:28:43.000Z,48.0
2022-09-05T16:28:54.000Z,47.0
2022-09-05T16:29:04.000Z,47.0
2022-09-05T16:29:15.000Z,46.0
2022-09-05T16:29:25.000Z,46.0
2022-09-05T16:29:35.000Z,45.0
2022-09-05T16:29:46.000Z,45.0
2022-09-05T16:29:56.000Z,45.0
2022-09-05T16:30:07.000Z,45.0
2022-09-05T16:30:17.000Z,45.0
2022-09-05T17:14:25.000Z,24.0
2022-09-05T17:44:28.000Z,6.0
2022-09-05T17:45:20.000Z,5.0
2022-09-05T17:45:51.000Z,5.0
2022-09-05T17:46:33.000Z,5.0
2022-09-05T17:47:14.000Z,4.0
2022-09-05T18:30:46.000Z,0.0
2022-09-05T18:30:57.000Z,1.0
2022-09-05T18:31:07.000Z,1.0
2022-09-05T18:31:17.000Z,0.0
2022-09-05T18:31:28.000Z,1.0
2022-09-05T18:31:38.000Z,0.0
2022-09-05T19:06:00.000Z,1.0
2022-09-05T19:06:10.000Z,1.0
2022-09-05T19:06:21.000Z,1.0
2022-09-05T19:06:31.000Z,1.0
2022-09-05T19:37:56.000Z,1.0
2022-09-05T20:08:41.000Z,1.0
2022-09-05T20:08:51.000Z,1.0
2022-09-05T20:09:02.000Z,1.0
2022-09-05T20:09:12.000Z,1.0
2022-09-05T20:09:22.000Z,1.0
2022-09-05T20:09:33.000Z,1.0
2022-09-05T20:09:43.000Z,1.0
2022-09-05T20:09:54.000Z,1.0
2022-09-05T20:10:04.000Z,1.0
2022-09-05T20:10:14.000Z,1.0
2022-09-05T20:10:25.000Z,1.0
2022-09-05T20:10:35.000Z,1.0
2022-09-05T20:10:46.000Z,1.0
2022-09-05T20:59:48.000Z,1.0
2022-09-05T20:59:58.000Z,1.0
2022-09-05T21:00:08.000Z,1.0
2022-09-05T21:00:19.000Z,1.0
2022-09-05T21:00:29.000Z,1.0
2022-09-05T21:00:40.000Z,1.0
2022-09-05T21:00:50.000Z,1.0
2022-09-05T21:01:00.000Z,1.0
2022-09-05T21:01:11.000Z,1.0
2022-09-05T21:01:21.000Z,1.0
2022-09-05T21:40:15.000Z,1.0
2022-09-05T22:10:20.000Z,1.0
2022-09-05T22:40:23.000Z,2.0
2022-09-05T23:10:33.000Z,1.0
2022-09-05T23:40:34.197Z,2
